createdAt,value
2023-11-29T00:00:46.028Z,89.79
2023-11-29T00:03:12.490Z,89.59
2023-11-29T00:05:44.127Z,89.39
2023-11-29T00:08:12.527Z,89.55
2023-11-29T00:10:38.968Z,89.82
2023-11-29T00:13:05.454Z,89.45
2023-11-29T00:15:31.839Z,89.58
2023-11-29T00:17:58.324Z,90.09
2023-11-29T00:20:24.786Z,89.97
2023-11-29T00:22:51.184Z,90.23
2023-11-29T00:25:18.094Z,89.98
2023-11-29T00:27:44.552Z,90.41
2023-11-29T00:30:11.575Z,89.97
2023-11-29T00:32:37.984Z,90.39
2023-11-29T00:35:04.845Z,90.64
2023-11-29T00:37:31.313Z,89.87
2023-11-29T00:39:57.807Z,90.29
2023-11-29T00:42:24.237Z,89.98
2023-11-29T00:44:53.310Z,89.93
2023-11-29T00:47:20.348Z,90.34
2023-11-29T00:49:46.827Z,90.50
2023-11-29T00:52:13.315Z,90.25
2023-11-29T00:54:39.773Z,89.98
2023-11-29T00:57:06.269Z,90.32
2023-11-29T00:59:32.894Z,90.63
2023-11-29T01:01:59.728Z,90.80
2023-11-29T01:04:26.156Z,90.80
2023-11-29T01:06:52.585Z,90.74
2023-11-29T01:09:19.139Z,90.51
2023-11-29T01:11:45.587Z,90.88
2023-11-29T01:14:12.171Z,90.88
2023-11-29T01:16:38.603Z,90.69
2023-11-29T01:19:05.487Z,90.80
2023-11-29T01:21:37.624Z,90.49
2023-11-29T01:24:04.497Z,90.52
2023-11-29T01:26:31.010Z,90.68
2023-11-29T01:28:57.426Z,90.58
2023-11-29T01:31:27.579Z,90.83
2023-11-29T01:33:55.427Z,90.74
2023-11-29T01:36:22.277Z,90.61
2023-11-29T01:38:48.810Z,91.09
2023-11-29T01:41:15.394Z,90.60
2023-11-29T01:43:41.841Z,90.67
2023-11-29T01:46:08.494Z,90.83
2023-11-29T01:48:35.163Z,90.72
2023-11-29T01:51:01.761Z,91.06
2023-11-29T01:53:30.833Z,90.80
2023-11-29T01:55:59.046Z,90.98
2023-11-29T01:58:27.615Z,91.07
2023-11-29T02:00:54.998Z,91.42
2023-11-29T02:03:22.063Z,91.24
2023-11-29T02:05:48.950Z,91.36
2023-11-29T02:08:15.788Z,91.02
2023-11-29T02:10:42.265Z,91.30
2023-11-29T02:13:08.844Z,91.10
2023-11-29T02:15:35.224Z,91.16
2023-11-29T02:18:01.948Z,91.29
2023-11-29T02:20:28.504Z,91.50
2023-11-29T02:23:07.622Z,91.14
2023-11-29T02:25:34.022Z,91.14
2023-11-29T02:28:01.443Z,91.31
2023-11-29T02:30:28.068Z,91.49
2023-11-29T02:32:54.639Z,91.07
2023-11-29T02:35:21.296Z,91.35
2023-11-29T02:37:47.794Z,91.31
2023-11-29T02:40:14.559Z,91.40
2023-11-29T02:42:41.036Z,91.57
2023-11-29T02:45:08.077Z,91.12
2023-11-29T02:47:34.716Z,91.41
2023-11-29T02:50:01.340Z,91.38
2023-11-29T02:52:27.773Z,91.20
2023-11-29T02:54:54.598Z,91.36
2023-11-29T02:57:20.995Z,91.03
2023-11-29T02:59:47.988Z,91.15
2023-11-29T03:02:15.605Z,91.18
2023-11-29T03:04:42.191Z,91.25
2023-11-29T03:07:08.594Z,91.02
2023-11-29T03:09:35.026Z,91.22
2023-11-29T03:12:01.698Z,91.03
2023-11-29T03:14:28.225Z,91.06
2023-11-29T03:16:55.722Z,90.87
2023-11-29T03:19:22.190Z,90.92
2023-11-29T03:21:48.606Z,90.97
2023-11-29T03:24:15.089Z,91.07
2023-11-29T03:26:44.918Z,90.71
2023-11-29T03:29:11.509Z,91.02
2023-11-29T03:31:38.016Z,90.86
2023-11-29T03:34:04.475Z,90.86
2023-11-29T03:36:30.837Z,90.76
2023-11-29T03:38:57.269Z,90.97
2023-11-29T03:41:23.730Z,90.77
2023-11-29T03:43:50.136Z,90.72
2023-11-29T03:46:16.524Z,91.01
2023-11-29T03:48:42.935Z,90.81
2023-11-29T03:51:09.302Z,90.91
2023-11-29T03:53:35.738Z,90.79
2023-11-29T03:56:02.206Z,90.85
2023-11-29T03:58:28.632Z,90.97
2023-11-29T04:00:55.072Z,90.80
2023-11-29T04:03:21.599Z,90.85
2023-11-29T04:05:48.080Z,91.14
2023-11-29T04:08:14.608Z,90.96
2023-11-29T04:10:41.125Z,90.87
2023-11-29T04:13:07.532Z,90.90
2023-11-29T04:15:33.906Z,90.96
2023-11-29T04:18:00.355Z,90.84
2023-11-29T04:20:26.920Z,90.72
2023-11-29T04:22:53.304Z,90.82
2023-11-29T04:25:20.375Z,91.00
2023-11-29T04:27:46.869Z,90.73
2023-11-29T04:30:13.520Z,90.63
2023-11-29T04:32:40.158Z,90.85
2023-11-29T04:35:06.883Z,90.87
2023-11-29T04:37:33.304Z,90.97
2023-11-29T04:39:59.673Z,90.86
2023-11-29T04:42:26.135Z,90.53
2023-11-29T04:44:52.615Z,90.98
2023-11-29T04:47:19.696Z,90.75
2023-11-29T04:49:46.197Z,90.68
2023-11-29T04:52:12.762Z,90.70
2023-11-29T04:54:39.178Z,90.48
2023-11-29T04:57:05.562Z,90.59
2023-11-29T04:59:32.303Z,90.62
2023-11-29T05:01:59.542Z,90.46
2023-11-29T05:04:26.170Z,90.38
2023-11-29T05:06:52.632Z,90.66
2023-11-29T05:09:19.104Z,90.17
2023-11-29T05:11:46.251Z,90.49
2023-11-29T05:14:14.953Z,90.33
2023-11-29T05:16:42.766Z,90.52
2023-11-29T05:19:09.377Z,90.44
2023-11-29T05:21:36.585Z,90.40
2023-11-29T05:24:04.223Z,90.15
2023-11-29T05:26:30.952Z,90.61
2023-11-29T05:28:57.406Z,90.31
2023-11-29T05:31:24.053Z,90.77
2023-11-29T05:33:50.922Z,90.65
2023-11-29T05:36:20.354Z,90.33
2023-11-29T05:38:47.059Z,90.38
2023-11-29T05:41:14.517Z,90.31
2023-11-29T05:43:41.488Z,90.24
2023-11-29T05:46:07.944Z,90.30
2023-11-29T05:48:34.423Z,90.49
2023-11-29T05:51:01.767Z,90.67
2023-11-29T05:53:28.445Z,90.38
2023-11-29T05:55:55.020Z,90.54
2023-11-29T05:58:21.460Z,90.56
2023-11-29T06:00:47.968Z,90.42
2023-11-29T06:03:14.505Z,90.54
2023-11-29T06:05:41.026Z,90.49
2023-11-29T06:08:07.770Z,90.56
2023-11-29T06:10:34.246Z,89.98
2023-11-29T06:13:00.789Z,89.87
2023-11-29T06:15:30.182Z,89.82
2023-11-29T06:17:56.744Z,89.79
2023-11-29T06:20:23.851Z,89.78
2023-11-29T06:22:51.135Z,89.59
2023-11-29T06:25:17.630Z,89.53
2023-11-29T06:27:45.972Z,89.59
2023-11-29T06:30:13.050Z,89.30
2023-11-29T06:32:42.501Z,89.46
2023-11-29T06:35:13.258Z,89.11
2023-11-29T06:37:40.104Z,89.21
2023-11-29T06:40:11.909Z,89.33
2023-11-29T06:42:40.914Z,89.06
2023-11-29T06:45:08.114Z,88.72
2023-11-29T06:47:35.228Z,88.92
2023-11-29T06:50:02.052Z,88.88
2023-11-29T06:52:28.426Z,88.73
2023-11-29T06:54:54.909Z,88.86
2023-11-29T06:57:21.287Z,88.78
2023-11-29T06:59:47.822Z,88.38
2023-11-29T07:02:14.317Z,88.67
2023-11-29T07:04:44.640Z,88.71
2023-11-29T07:07:12.167Z,88.78
2023-11-29T07:09:38.743Z,88.72
2023-11-29T07:12:09.566Z,89.14
2023-11-29T07:14:36.401Z,88.85
2023-11-29T07:17:03.005Z,88.89
2023-11-29T07:19:29.416Z,88.96
2023-11-29T07:21:55.935Z,88.90
2023-11-29T07:24:22.365Z,89.13
2023-11-29T07:26:49.892Z,89.06
2023-11-29T07:29:16.369Z,88.97
2023-11-29T07:31:42.767Z,89.22
2023-11-29T07:34:09.248Z,89.33
2023-11-29T07:36:35.665Z,89.34
2023-11-29T07:39:02.186Z,89.50
2023-11-29T07:41:28.871Z,89.52
2023-11-29T07:43:55.837Z,89.48
2023-11-29T07:46:22.330Z,89.45
2023-11-29T07:48:48.948Z,89.48
2023-11-29T07:51:15.483Z,89.20
2023-11-29T07:53:43.124Z,88.90
2023-11-29T07:56:10.577Z,88.85
2023-11-29T07:58:37.528Z,88.35
2023-11-29T08:01:04.108Z,88.05
2023-11-29T08:03:30.553Z,88.10
2023-11-29T08:05:57.043Z,88.12
2023-11-29T08:08:23.476Z,88.13
2023-11-29T08:10:49.994Z,88.46
2023-11-29T08:13:16.402Z,88.20
2023-11-29T08:15:45.462Z,88.23
2023-11-29T08:18:12.243Z,87.91
2023-11-29T08:20:38.833Z,88.14
2023-11-29T08:23:05.400Z,88.35
2023-11-29T08:25:31.995Z,88.24
2023-11-29T08:27:58.673Z,88.31
2023-11-29T08:30:25.393Z,88.78
2023-11-29T08:32:52.144Z,88.57
2023-11-29T08:35:18.668Z,88.70
2023-11-29T08:37:45.136Z,89.14
2023-11-29T08:40:12.135Z,88.82
2023-11-29T08:42:40.493Z,89.08
2023-11-29T08:45:07.982Z,89.22
2023-11-29T08:47:34.538Z,89.27
2023-11-29T08:50:01.092Z,89.28
2023-11-29T08:52:27.584Z,89.58
2023-11-29T08:54:54.768Z,89.57
2023-11-29T08:57:25.281Z,89.61
2023-11-29T08:59:52.492Z,89.59
2023-11-29T09:02:24.078Z,89.70
2023-11-29T09:04:51.397Z,89.46
2023-11-29T09:07:18.795Z,89.35
2023-11-29T09:09:45.378Z,89.39
2023-11-29T09:12:12.906Z,89.23
2023-11-29T09:14:39.926Z,89.10
2023-11-29T09:17:06.794Z,88.59
2023-11-29T09:19:33.632Z,88.42
2023-11-29T09:22:00.480Z,88.27
2023-11-29T09:24:27.183Z,87.61
2023-11-29T09:26:55.728Z,87.25
2023-11-29T09:29:23.395Z,86.88
2023-11-29T09:31:49.943Z,87.18
2023-11-29T09:34:16.361Z,86.86
2023-11-29T09:36:42.807Z,85.98
2023-11-29T09:39:14.060Z,85.45
2023-11-29T09:41:40.771Z,85.48
2023-11-29T09:44:07.575Z,85.68
2023-11-29T09:46:34.812Z,85.96
2023-11-29T09:49:02.593Z,86.08
2023-11-29T09:51:29.260Z,86.11
2023-11-29T09:53:58.013Z,86.10
2023-11-29T09:56:24.852Z,85.78
2023-11-29T09:58:51.534Z,85.27
2023-11-29T10:01:17.956Z,85.20
2023-11-29T10:04:00.511Z,85.28
2023-11-29T10:06:27.087Z,84.97
2023-11-29T10:08:53.532Z,84.43
2023-11-29T10:11:20.429Z,84.79
2023-11-29T10:13:48.540Z,84.87
2023-11-29T10:16:18.112Z,85.01
2023-11-29T10:18:47.344Z,84.82
2023-11-29T10:21:14.295Z,84.70
2023-11-29T10:23:40.883Z,84.47
2023-11-29T10:26:09.294Z,84.61
2023-11-29T10:28:37.225Z,84.32
2023-11-29T10:31:06.107Z,83.95
2023-11-29T10:33:33.271Z,83.83
2023-11-29T10:36:02.502Z,84.19
2023-11-29T10:38:38.668Z,83.71
2023-11-29T10:41:06.173Z,83.45
2023-11-29T10:43:35.642Z,83.40
2023-11-29T10:46:32.283Z,83.58
2023-11-29T10:49:12.612Z,83.62
2023-11-29T10:51:40.402Z,83.38
2023-11-29T10:54:08.451Z,83.22
2023-11-29T10:56:36.106Z,82.90
2023-11-29T10:59:10.621Z,82.99
2023-11-29T11:01:38.416Z,82.71
2023-11-29T11:04:10.158Z,82.79
2023-11-29T11:06:41.034Z,82.88
2023-11-29T11:09:29.685Z,83.17
2023-11-29T11:11:56.197Z,82.90
2023-11-29T11:14:24.196Z,82.35
2023-11-29T11:17:01.527Z,82.85
2023-11-29T11:19:35.970Z,83.03
2023-11-29T11:22:22.734Z,83.54
2023-11-29T11:25:14.089Z,82.27
2023-11-29T11:27:42.711Z,82.66
2023-11-29T11:30:15.106Z,82.45
2023-11-29T11:32:41.762Z,82.42
2023-11-29T11:35:17.405Z,82.28
2023-11-29T11:37:55.137Z,82.30
2023-11-29T11:40:24.190Z,82.24
2023-11-29T11:42:52.581Z,82.37
2023-11-29T11:45:19.600Z,82.67
2023-11-29T11:47:46.435Z,82.27
2023-11-29T11:50:14.039Z,82.11
2023-11-29T11:52:40.963Z,82.31
2023-11-29T11:55:09.619Z,82.26
2023-11-29T11:57:37.324Z,81.63
2023-11-29T12:00:08.101Z,81.68
2023-11-29T12:02:35.826Z,81.19
2023-11-29T12:05:06.692Z,80.84
2023-11-29T12:07:38.025Z,81.05
2023-11-29T12:10:05.190Z,80.95
2023-11-29T12:12:31.580Z,81.11
2023-11-29T12:14:58.089Z,80.94
2023-11-29T12:17:34.499Z,80.91
2023-11-29T12:20:06.184Z,80.62
2023-11-29T12:22:34.220Z,81.29
2023-11-29T12:25:00.912Z,81.13
2023-11-29T12:27:28.568Z,80.68
2023-11-29T12:29:59.489Z,81.10
2023-11-29T12:32:29.423Z,82.01
2023-11-29T12:34:59.728Z,82.63
2023-11-29T12:37:27.935Z,82.36
2023-11-29T12:39:58.397Z,82.19
2023-11-29T12:42:25.640Z,82.51
2023-11-29T12:44:53.168Z,83.00
2023-11-29T12:47:23.271Z,82.69
2023-11-29T12:49:50.632Z,83.02
2023-11-29T12:52:17.255Z,83.51
2023-11-29T12:54:43.850Z,82.80
2023-11-29T12:57:10.736Z,82.78
2023-11-29T12:59:37.281Z,82.86
2023-11-29T13:02:04.674Z,82.53
2023-11-29T13:04:31.678Z,82.74
2023-11-29T13:06:58.228Z,83.04
2023-11-29T13:09:25.514Z,83.00
2023-11-29T13:11:52.725Z,82.95
2023-11-29T13:14:20.697Z,83.16
2023-11-29T13:16:47.131Z,82.46
2023-11-29T13:19:13.513Z,82.31
2023-11-29T13:21:39.895Z,82.41
2023-11-29T13:24:06.805Z,82.64
2023-11-29T13:26:33.349Z,82.39
2023-11-29T13:28:59.822Z,82.65
2023-11-29T13:31:26.466Z,82.47
2023-11-29T13:33:52.945Z,82.60
2023-11-29T13:36:19.431Z,82.87
2023-11-29T13:38:45.900Z,82.72
2023-11-29T13:41:12.406Z,82.70
2023-11-29T13:43:39.162Z,82.23
2023-11-29T13:46:05.561Z,82.11
2023-11-29T13:48:32.122Z,82.13
2023-11-29T13:51:00.141Z,82.06
2023-11-29T13:53:29.346Z,82.16
2023-11-29T13:55:56.005Z,82.30
2023-11-29T13:58:22.576Z,82.41
2023-11-29T14:00:49.061Z,82.59
2023-11-29T14:03:24.430Z,82.25
2023-11-29T14:05:54.775Z,82.28
2023-11-29T14:08:21.299Z,82.13
2023-11-29T14:10:47.768Z,82.01
2023-11-29T14:13:14.223Z,82.23
2023-11-29T14:15:41.730Z,82.34
2023-11-29T14:18:08.503Z,82.47
2023-11-29T14:20:35.914Z,82.46
2023-11-29T14:23:02.438Z,82.50
2023-11-29T14:25:28.854Z,82.81
2023-11-29T14:27:58.166Z,82.51
2023-11-29T14:30:25.060Z,83.07
2023-11-29T14:32:51.865Z,83.25
2023-11-29T14:35:18.400Z,83.37
2023-11-29T14:37:44.909Z,83.23
2023-11-29T14:40:12.261Z,83.20
2023-11-29T14:42:38.903Z,83.08
2023-11-29T14:45:06.082Z,83.23
2023-11-29T14:47:32.706Z,83.16
2023-11-29T14:49:59.494Z,83.74
2023-11-29T14:52:26.032Z,83.53
2023-11-29T14:54:52.544Z,83.81
2023-11-29T14:57:19.858Z,83.91
2023-11-29T14:59:47.386Z,84.02
2023-11-29T15:02:14.183Z,83.88
2023-11-29T15:04:40.700Z,84.36
2023-11-29T15:07:07.889Z,84.09
2023-11-29T15:09:34.337Z,84.53
2023-11-29T15:12:00.859Z,84.63
2023-11-29T15:14:28.495Z,84.40
2023-11-29T15:16:54.923Z,84.57
2023-11-29T15:19:21.351Z,84.40
2023-11-29T15:21:47.750Z,84.71
2023-11-29T15:24:14.286Z,84.61
2023-11-29T15:26:41.114Z,84.65
2023-11-29T15:29:07.555Z,84.65
2023-11-29T15:31:34.126Z,84.65
2023-11-29T15:34:00.657Z,84.62
2023-11-29T15:36:27.247Z,84.46
2023-11-29T15:38:53.862Z,84.71
2023-11-29T15:41:22.020Z,84.93
2023-11-29T15:43:49.398Z,84.93
2023-11-29T15:46:15.927Z,84.94
2023-11-29T15:48:42.616Z,84.99
2023-11-29T15:51:09.665Z,84.96
2023-11-29T15:53:37.031Z,85.31
2023-11-29T15:56:03.924Z,85.31
2023-11-29T15:58:30.411Z,85.31
2023-11-29T16:00:56.909Z,85.13
2023-11-29T16:03:24.542Z,85.21
2023-11-29T16:05:53.350Z,85.27
2023-11-29T16:08:19.875Z,85.10
2023-11-29T16:10:46.300Z,85.41
2023-11-29T16:13:12.721Z,85.32
2023-11-29T16:15:39.212Z,85.63
2023-11-29T16:18:05.750Z,85.69
2023-11-29T16:20:37.008Z,85.51
2023-11-29T16:23:04.408Z,85.72
2023-11-29T16:25:30.880Z,85.79
2023-11-29T16:27:57.530Z,85.85
2023-11-29T16:30:24.916Z,85.86
2023-11-29T16:32:52.023Z,85.95
2023-11-29T16:35:18.634Z,85.88
2023-11-29T16:37:45.224Z,86.06
2023-11-29T16:40:12.679Z,86.01
2023-11-29T16:42:39.314Z,85.99
2023-11-29T16:45:06.294Z,86.25
2023-11-29T16:47:32.822Z,86.21
2023-11-29T16:49:59.566Z,85.99
2023-11-29T16:52:26.691Z,86.19
2023-11-29T16:54:53.078Z,86.35
2023-11-29T16:57:19.557Z,86.30
2023-11-29T16:59:46.032Z,86.48
2023-11-29T17:02:12.593Z,86.36
2023-11-29T17:04:39.083Z,86.28
2023-11-29T17:07:05.672Z,86.56
2023-11-29T17:09:32.201Z,86.66
2023-11-29T17:11:58.921Z,86.44
2023-11-29T17:14:26.852Z,86.48
2023-11-29T17:16:53.325Z,86.58
2023-11-29T17:19:19.726Z,86.83
2023-11-29T17:21:46.417Z,86.51
2023-11-29T17:24:13.009Z,86.66
2023-11-29T17:26:41.980Z,86.40
2023-11-29T17:29:08.966Z,86.92
2023-11-29T17:31:35.857Z,87.12
2023-11-29T17:34:02.443Z,87.08
2023-11-29T17:36:28.898Z,87.06
2023-11-29T17:38:55.383Z,87.36
2023-11-29T17:41:21.878Z,87.06
2023-11-29T17:43:48.287Z,87.05
2023-11-29T17:46:14.680Z,87.15
2023-11-29T17:48:41.278Z,87.46
2023-11-29T17:51:08.581Z,87.62
2023-11-29T17:53:35.109Z,87.25
2023-11-29T17:56:01.620Z,87.54
2023-11-29T17:58:28.251Z,87.45
2023-11-29T18:00:54.751Z,87.35
2023-11-29T18:03:21.283Z,87.29
2023-11-29T18:05:47.853Z,87.49
2023-11-29T18:08:14.949Z,87.43
2023-11-29T18:10:56.685Z,87.56
2023-11-29T18:13:24.740Z,87.27
2023-11-29T18:15:51.120Z,87.32
2023-11-29T18:18:17.908Z,87.44
2023-11-29T18:20:45.993Z,87.40
2023-11-29T18:23:13.383Z,87.11
2023-11-29T18:25:48.544Z,87.75
2023-11-29T18:28:23.077Z,87.45
2023-11-29T18:30:49.522Z,87.19
2023-11-29T18:33:16.057Z,87.50
2023-11-29T18:35:43.823Z,87.19
2023-11-29T18:38:10.288Z,87.59
2023-11-29T18:40:36.940Z,87.58
2023-11-29T18:43:03.965Z,87.47
2023-11-29T18:45:30.389Z,87.46
2023-11-29T18:47:58.293Z,87.66
2023-11-29T18:50:25.017Z,87.95
2023-11-29T18:52:51.553Z,87.85
2023-11-29T18:55:19.145Z,87.75
2023-11-29T18:57:45.576Z,87.64
2023-11-29T19:00:12.902Z,87.78
2023-11-29T19:02:39.869Z,87.79
2023-11-29T19:05:06.940Z,87.35
2023-11-29T19:07:33.665Z,87.46
2023-11-29T19:10:00.214Z,87.80
2023-11-29T19:12:26.653Z,87.70
2023-11-29T19:14:53.167Z,87.64
2023-11-29T19:17:21.072Z,87.86
2023-11-29T19:19:47.507Z,87.66
2023-11-29T19:22:13.974Z,87.78
2023-11-29T19:24:40.521Z,88.00
2023-11-29T19:27:07.286Z,87.57
2023-11-29T19:29:34.440Z,87.60
2023-11-29T19:32:00.855Z,87.67
2023-11-29T19:34:27.537Z,88.28
2023-11-29T19:36:54.143Z,87.66
2023-11-29T19:39:20.785Z,87.66
2023-11-29T19:41:47.439Z,88.14
2023-11-29T19:44:13.910Z,87.41
2023-11-29T19:46:40.724Z,87.60
2023-11-29T19:49:07.350Z,87.94
2023-11-29T19:51:33.792Z,87.68
2023-11-29T19:54:00.385Z,87.46
2023-11-29T19:56:26.978Z,87.89
2023-11-29T19:58:53.390Z,87.59
2023-11-29T20:01:22.542Z,87.59
2023-11-29T20:03:49.212Z,88.07
2023-11-29T20:06:22.051Z,87.44
2023-11-29T20:08:55.589Z,87.73
2023-11-29T20:11:22.683Z,87.88
2023-11-29T20:13:49.317Z,88.08
2023-11-29T20:16:15.877Z,88.17
2023-11-29T20:18:42.727Z,87.88
2023-11-29T20:21:09.493Z,88.04
2023-11-29T20:23:37.470Z,88.02
2023-11-29T20:26:04.101Z,87.58
2023-11-29T20:28:30.636Z,87.91
2023-11-29T20:30:57.322Z,87.49
2023-11-29T20:33:23.962Z,87.84
2023-11-29T20:35:51.878Z,88.06
2023-11-29T20:38:19.273Z,88.28
2023-11-29T20:40:48.005Z,87.54
2023-11-29T20:43:18.394Z,88.13
2023-11-29T20:45:45.363Z,87.95
2023-11-29T20:48:12.039Z,88.02
2023-11-29T20:50:40.045Z,88.33
2023-11-29T20:53:14.574Z,88.17
2023-11-29T20:55:47.118Z,87.91
2023-11-29T20:58:14.373Z,88.49
2023-11-29T21:00:42.748Z,88.10
2023-11-29T21:03:09.463Z,87.87
2023-11-29T21:05:35.983Z,88.48
2023-11-29T21:08:02.448Z,87.91
2023-11-29T21:10:28.909Z,88.02
2023-11-29T21:12:58.622Z,88.58
2023-11-29T21:15:25.528Z,88.55
2023-11-29T21:17:53.542Z,88.30
2023-11-29T21:20:20.150Z,88.62
2023-11-29T21:22:46.646Z,88.43
2023-11-29T21:25:16.622Z,88.71
2023-11-29T21:27:43.053Z,88.81
2023-11-29T21:30:10.121Z,88.63
2023-11-29T21:32:36.563Z,88.58
2023-11-29T21:35:03.122Z,88.76
2023-11-29T21:37:29.572Z,88.54
2023-11-29T21:39:56.007Z,88.98
2023-11-29T21:42:22.412Z,88.53
2023-11-29T21:44:48.932Z,88.17
2023-11-29T21:47:15.449Z,88.56
2023-11-29T21:49:41.986Z,88.71
2023-11-29T21:52:08.497Z,88.29
2023-11-29T21:54:34.927Z,88.36
2023-11-29T21:57:01.412Z,88.58
2023-11-29T21:59:27.922Z,88.26
2023-11-29T22:01:54.629Z,88.41
2023-11-29T22:04:21.605Z,88.73
2023-11-29T22:06:53.566Z,88.29
2023-11-29T22:09:20.034Z,88.33
2023-11-29T22:11:46.672Z,88.55
2023-11-29T22:14:13.245Z,88.75
2023-11-29T22:16:40.548Z,88.33
2023-11-29T22:19:09.599Z,88.58
2023-11-29T22:21:36.117Z,88.74
2023-11-29T22:24:03.346Z,88.84
2023-11-29T22:26:32.378Z,88.57
2023-11-29T22:29:02.290Z,88.36
2023-11-29T22:31:28.733Z,88.19
2023-11-29T22:33:55.453Z,88.58
2023-11-29T22:36:22.037Z,88.74
2023-11-29T22:38:49.428Z,88.73
2023-11-29T22:41:23.987Z,88.59
2023-11-29T22:43:56.933Z,88.75
2023-11-29T22:46:26.388Z,88.43
2023-11-29T22:48:53.050Z,88.61
2023-11-29T22:51:22.173Z,88.03
2023-11-29T22:53:50.366Z,88.27
2023-11-29T22:56:17.638Z,88.02
2023-11-29T22:58:44.932Z,88.23
2023-11-29T23:01:14.589Z,88.68
2023-11-29T23:03:42.736Z,88.48
2023-11-29T23:06:11.550Z,88.47
2023-11-29T23:08:38.207Z,88.29
2023-11-29T23:11:05.382Z,88.45
2023-11-29T23:13:31.858Z,87.97
2023-11-29T23:15:58.253Z,88.17
2023-11-29T23:18:24.876Z,88.63
2023-11-29T23:20:51.764Z,88.64
2023-11-29T23:23:24.026Z,88.64
2023-11-29T23:25:53.199Z,88.26
2023-11-29T23:28:19.751Z,88.20
2023-11-29T23:30:46.379Z,88.51
2023-11-29T23:33:12.881Z,88.21
2023-11-29T23:35:39.377Z,88.32
2023-11-29T23:38:06.824Z,88.56
2023-11-29T23:40:33.248Z,88.49
2023-11-29T23:42:59.868Z,88.52
2023-11-29T23:45:32.338Z,88.54
2023-11-29T23:47:58.918Z,88.37
2023-11-29T23:50:25.393Z,88.24
2023-11-29T23:52:51.871Z,88.57
2023-11-29T23:55:18.487Z,88.69
2023-11-29T23:57:44.981Z,88.50
